Time;durP1;ratioP1;P1;durP2;ratioP2;P2;SDS_P1;SDS_P2;PMS_P1;PMS_P2;Temp;Humidity;BMP_temperature;BMP_pressure;BME280_temperature;BME280_humidity;BME280_pressure;Samples;Min_cycle;Max_cycle;Signal;HPM_P1;HPM_P2
2023/04/10 00:02:16;;;;;;;;;6.00;4.00;;;;;20.30;33.57;101419.56;5099236;27;45225;-43
2023/04/10 00:04:42;;;;;;;;;2.50;2.25;;;;;20.29;33.64;101412.56;5098710;27;45314;-43
2023/04/10 00:07:07;;;;;;;;;5.00;4.00;;;;;20.30;33.80;101419.56;5097501;27;45362;-43
2023/04/10 00:09:33;;;;;;;;;3.67;3.00;;;;;20.31;33.96;101418.63;5098538;27;50347;-44
2023/04/10 00:11:58;;;;;;;;;5.00;5.00;;;;;20.30;33.96;101416.91;5099491;27;45321;-42
2023/04/10 00:14:24;;;;;;;;;5.50;3.00;;;;;20.29;33.69;101409.94;5098537;27;45348;-42
2023/04/10 00:16:49;;;;;;;;;4.00;4.00;;;;;20.30;33.89;101414.28;5097167;27;45353;-42
2023/04/10 00:19:15;;;;;;;;;4.25;4.00;;;;;20.30;33.48;101414.28;5098779;27;45299;-42
2023/04/10 00:21:40;;;;;;;;;5.00;3.25;;;;;20.29;33.68;101403.81;5097632;27;45520;-42
2023/04/10 00:24:06;;;;;;;;;5.25;4.25;;;;;20.29;34.06;101398.53;5098358;27;48025;-42
2023/04/10 00:26:31;;;;;;;;;3.00;3.00;;;;;20.28;34.08;101399.50;5098811;27;45340;-43
2023/04/10 00:28:57;;;;;;;;;5.75;4.25;;;;;20.28;33.97;101405.59;5098882;27;45834;-43
2023/04/10 00:31:22;;;;;;;;;6.25;4.00;;;;;20.29;34.08;101403.81;5098933;27;45525;-42
2023/04/10 00:33:47;;;;;;;;;4.00;4.00;;;;;20.28;33.69;101392.44;5098254;27;46068;-42
2023/04/10 00:36:13;;;;;;;;;4.25;4.25;;;;;20.28;34.18;101384.53;5098378;27;45327;-44
2023/04/10 00:38:38;;;;;;;;;3.00;3.00;;;;;20.28;34.06;101381.91;5098407;27;45346;-43
2023/04/10 00:41:04;;;;;;;;;3.25;3.25;;;;;20.27;33.81;101382.84;5098077;27;51334;-43
2023/04/10 00:43:30;;;;;;;;;4.25;4.25;;;;;20.28;33.81;101378.44;5098484;27;45313;-43
2023/04/10 00:45:55;;;;;;;;;4.00;3.00;;;;;20.27;33.98;101377.56;5098148;27;45381;-42
2023/04/10 00:48:21;;;;;;;;;2.50;2.50;;;;;20.27;34.09;101374.94;5098421;27;45369;-42
2023/04/10 00:50:46;;;;;;;;;2.75;2.75;;;;;20.27;34.16;101374.94;5098471;27;45650;-42
2023/04/10 00:53:11;;;;;;;;;3.75;3.00;;;;;20.26;34.04;101369.75;5097861;27;46935;-42
2023/04/10 00:55:37;;;;;;;;;3.00;2.75;;;;;20.25;33.62;101363.63;5098025;27;45271;-42
2023/04/10 00:58:02;;;;;;;;;3.75;3.00;;;;;20.25;33.70;101366.25;5098425;27;45446;-42
2023/04/10 01:00:28;;;;;;;;;3.25;3.25;;;;;20.26;33.68;101359.22;5098299;27;45227;-42
2023/04/10 01:02:54;;;;;;;;;4.50;3.50;;;;;20.26;33.98;101357.44;5097570;27;51938;-44
2023/04/10 01:05:20;;;;;;;;;3.50;3.50;;;;;20.22;34.14;101343.56;5097795;27;45881;-43
2023/04/10 01:08:18;;;;;;;;;4.75;4.00;;;;;20.26;34.10;101353.97;5098077;27;45200;-45
2023/04/10 01:11:00;;;;;;;;;2.00;2.00;;;;;20.24;33.80;101351.38;5085739;27;45402;-43
2023/04/10 01:13:42;;;;;;;;;3.00;3.00;;;;;20.23;33.63;101344.41;5097719;27;46164;-42
2023/04/10 01:16:07;;;;;;;;;5.25;4.00;;;;;20.22;34.29;101334.81;5097298;27;45387;-42
2023/04/10 01:18:39;;;;;;;;;3.67;3.00;;;;;20.22;34.29;101334.81;5098071;27;45401;-47
2023/04/10 01:21:08;;;;;;;;;4.00;4.00;;;;;20.23;34.40;101341.78;5098171;27;45495;-42
2023/04/10 01:23:48;;;;;;;;;3.50;3.00;;;;;20.22;33.89;101338.28;5097788;27;47014;-42
2023/04/10 01:26:18;;;;;;;;;4.25;4.00;;;;;20.23;34.40;101344.41;5097386;27;45357;-43
2023/04/10 01:29:00;;;;;;;;;3.50;3.50;;;;;20.22;33.85;101335.66;5097484;27;45423;-43
2023/04/10 01:31:52;;;;;;;;;3.25;3.25;;;;;20.21;33.81;101336.59;5097694;27;45415;-42
2023/04/10 01:34:31;;;;;;;;;3.00;3.00;;;;;20.21;33.93;101335.75;5097424;27;46215;-42
2023/04/10 01:37:02;;;;;;;;;3.00;3.00;;;;;20.22;34.16;101334.81;5097646;27;45281;-42
2023/04/10 01:39:30;;;;;;;;;6.50;4.00;;;;;20.22;34.27;101338.28;5097513;27;45291;-42
2023/04/10 01:41:58;;;;;;;;;4.00;4.00;;;;;20.20;34.40;101334.03;5097773;27;45322;-42
2023/04/10 01:44:27;;;;;;;;;3.75;3.75;;;;;20.21;34.30;101330.47;5097251;27;46649;-45
2023/04/10 01:46:55;;;;;;;;;3.75;3.25;;;;;20.20;34.11;101324.34;5097274;27;45909;-43
2023/04/10 01:49:24;;;;;;;;;3.75;3.75;;;;;20.22;34.32;101324.28;5097351;27;45365;-42
2023/04/10 01:51:50;;;;;;;;;3.00;3.00;;;;;20.21;33.99;101314.69;5097475;27;45527;-42
2023/04/10 01:54:16;;;;;;;;;3.50;3.50;;;;;20.21;34.16;101318.16;5097052;27;47186;-42
2023/04/10 01:56:42;;;;;;;;;4.00;4.00;;;;;20.20;33.81;101315.63;5097137;27;45322;-42
2023/04/10 01:59:08;;;;;;;;;4.00;3.00;;;;;20.20;33.95;101320.88;5097570;27;45414;-42
2023/04/10 02:01:33;;;;;;;;;4.00;4.00;;;;;20.20;33.87;101318.25;5097608;27;45521;-42
2023/04/10 02:04:00;;;;;;;;;4.00;3.50;;;;;20.21;34.51;101317.31;5096521;27;54075;-42
2023/04/10 02:06:43;;;;;;;;;3.00;3.00;;;;;20.20;34.37;101312.97;5096865;27;45353;-42
2023/04/10 02:09:22;;;;;;;;;4.00;4.00;;;;;20.21;34.08;101312.06;5096985;27;45422;-42
2023/04/10 02:11:56;;;;;;;;;4.25;3.00;;;;;20.20;34.28;101307.72;5097251;27;45216;-42
2023/04/10 02:14:24;;;;;;;;;3.25;3.00;;;;;20.20;33.99;101303.28;5096699;27;45363;-42
2023/04/10 02:16:53;;;;;;;;;4.75;4.75;;;;;20.20;34.37;101297.19;5096726;27;45385;-42
2023/04/10 02:19:21;;;;;;;;;3.00;3.00;;;;;20.20;34.03;101302.44;5096893;27;45579;-42
2023/04/10 02:21:46;;;;;;;;;5.50;4.00;;;;;20.16;34.22;101293.84;5097248;27;45255;-42
2023/04/10 02:24:12;;;;;;;;;3.00;3.00;;;;;20.19;34.21;101298.94;5096664;27;46122;-42
2023/04/10 02:26:49;;;;;;;;;4.00;4.00;;;;;20.19;34.41;101298.13;5096889;27;45255;-43
2023/04/10 02:29:15;;;;;;;;;2.75;1.00;;;;;20.18;34.21;101291.97;5096861;27;45363;-42
2023/04/10 02:31:41;;;;;;;;;4.00;4.00;;;;;20.19;34.35;101290.22;5096993;27;45321;-42
2023/04/10 02:34:07;;;;;;;;;3.25;3.00;;;;;20.19;34.63;101284.94;5096886;27;45401;-42
2023/04/10 02:36:34;;;;;;;;;6.00;3.25;;;;;20.19;34.19;101284.94;5096608;27;45388;-43
2023/04/10 02:38:59;;;;;;;;;5.00;4.00;;;;;20.18;34.39;101283.25;5097536;27;45309;-43
2023/04/10 02:41:25;;;;;;;;;4.00;4.00;;;;;20.18;34.60;101275.34;5100692;27;45369;-44
2023/04/10 02:43:51;;;;;;;;;2.75;2.75;;;;;20.16;34.03;101275.44;5100061;27;46122;-43
2023/04/10 02:46:16;;;;;;;;;5.00;3.25;;;;;20.17;34.22;101263.09;5100027;27;45412;-43
2023/04/10 02:48:41;;;;;;;;;4.00;2.25;;;;;20.18;34.45;101270.94;5100211;27;45226;-45
2023/04/10 02:51:07;;;;;;;;;3.00;3.00;;;;;20.17;34.59;101266.63;5100647;27;45226;-42
2023/04/10 02:53:32;;;;;;;;;4.00;4.00;;;;;20.18;34.55;101264.81;5098630;27;46996;-42
2023/04/10 02:55:58;;;;;;;;;3.50;3.50;;;;;20.17;34.59;101274.50;5098587;27;45246;-42
2023/04/10 02:58:23;;;;;;;;;3.25;3.00;;;;;20.18;34.00;101264.81;5099949;27;45169;-42
2023/04/10 03:00:50;;;;;;;;;6.75;3.25;;;;;20.17;34.31;101265.75;5100130;27;45512;-42
2023/04/10 03:03:17;;;;;;;;;3.50;3.25;;;;;20.16;34.65;101261.41;5099693;27;46107;-42
2023/04/10 03:05:45;;;;;;;;;3.25;3.25;;;;;20.16;34.16;101253.50;5099772;27;45385;-43
2023/04/10 03:08:11;;;;;;;;;3.00;3.00;;;;;20.17;34.48;101255.22;5100235;27;45480;-43
2023/04/10 03:10:36;;;;;;;;;5.50;4.50;;;;;20.16;34.47;101251.75;5100054;27;45267;-44
2023/04/10 03:13:01;;;;;;;;;3.33;2.00;;;;;20.16;33.90;101258.78;5098923;27;63621;-43
2023/04/10 03:15:26;;;;;;;;;5.25;4.00;;;;;20.16;34.13;101251.75;5099509;27;45463;-42
2023/04/10 03:17:52;;;;;;;;;4.33;4.00;;;;;20.15;34.32;101243.91;5098553;27;68480;-42
2023/04/10 03:20:17;;;;;;;;;4.00;3.50;;;;;20.16;34.01;101242.97;5099997;27;45503;-43
2023/04/10 03:22:43;;;;;;;;;4.00;3.00;;;;;20.16;34.60;101249.13;5099540;27;46117;-42
2023/04/10 03:25:08;;;;;;;;;4.75;3.75;;;;;20.15;34.23;101241.28;5099678;27;45388;-42
2023/04/10 03:27:34;;;;;;;;;4.50;4.50;;;;;20.16;34.63;101237.72;5099599;27;45261;-42
2023/04/10 03:30:01;;;;;;;;;3.00;3.00;;;;;20.16;34.54;101237.72;5099688;27;45226;-42
2023/04/10 03:32:29;;;;;;;;;3.25;3.25;;;;;20.15;34.40;101233.38;5099328;27;46936;-42
2023/04/10 03:34:55;;;;;;;;;3.00;3.00;;;;;20.14;34.26;101234.28;5098826;27;46049;-42
2023/04/10 03:37:20;;;;;;;;;3.75;3.00;;;;;20.15;34.74;101241.28;5098129;27;45402;-42
2023/04/10 03:39:45;;;;;;;;;3.50;3.50;;;;;20.14;34.60;101234.28;5099473;27;45596;-42
2023/04/10 03:42:11;;;;;;;;;3.33;3.33;;;;;20.14;34.21;101229.03;5098688;27;68674;-42
2023/04/10 03:44:36;;;;;;;;;4.75;4.00;;;;;20.13;34.48;101232.59;5099119;27;45395;-42
2023/04/10 03:47:02;;;;;;;;;4.00;4.00;;;;;20.10;34.48;101227.50;5099210;27;45223;-42
2023/04/10 03:49:27;;;;;;;;;3.00;3.00;;;;;20.13;34.71;101233.47;5099215;27;45259;-43
2023/04/10 03:51:52;;;;;;;;;4.50;4.50;;;;;20.13;34.66;101232.59;5098829;27;46693;-42
2023/04/10 03:54:18;;;;;;;;;4.33;4.00;;;;;20.11;34.45;101224.78;5098188;27;61936;-42
2023/04/10 03:56:43;;;;;;;;;2.67;2.67;;;;;20.13;34.24;101216.81;5098637;27;66081;-42
2023/04/10 03:59:08;;;;;;;;;5.25;5.25;;;;;20.12;34.22;101209.88;5099207;27;45293;-42
2023/04/10 04:01:34;;;;;;;;;4.00;4.00;;;;;20.13;34.50;101222.06;5097843;27;72304;-42
2023/04/10 04:03:59;;;;;;;;;3.00;3.00;;;;;20.12;34.74;101215.97;5098689;27;45230;-43
2023/04/10 04:06:26;;;;;;;;;3.50;3.50;;;;;20.12;34.72;101209.88;5098862;27;45403;-43
2023/04/10 04:08:51;;;;;;;;;3.25;3.25;;;;;20.11;34.49;101210.78;5097789;27;45558;-44
2023/04/10 04:11:16;;;;;;;;;4.00;4.00;;;;;20.11;34.57;101208.16;5098682;27;45417;-43
2023/04/10 04:13:41;;;;;;;;;4.00;4.00;;;;;20.11;34.55;101206.34;5098999;27;45353;-43
2023/04/10 04:16:08;;;;;;;;;3.33;3.33;;;;;20.11;34.19;101213.41;5096552;27;64519;-43
2023/04/10 04:18:33;;;;;;;;;3.00;3.00;;;;;20.10;34.38;101209.91;5098855;27;45462;-44
2023/04/10 04:20:59;;;;;;;;;3.75;3.75;;;;;20.08;34.28;101212.63;5097231;27;46984;-44
2023/04/10 04:23:24;;;;;;;;;4.25;4.00;;;;;20.10;34.21;101214.34;5097241;27;45902;-45
2023/04/10 04:25:51;;;;;;;;;4.25;4.25;;;;;20.08;34.60;101220.53;5098581;27;45446;-42
2023/04/10 04:28:17;;;;;;;;;3.75;2.75;;;;;20.10;34.67;101220.44;5099092;27;45367;-43
2023/04/10 04:30:42;;;;;;;;;4.00;3.50;;;;;20.10;34.45;101228.34;5098783;27;46688;-43
2023/04/10 04:33:07;;;;;;;;;3.50;3.50;;;;;20.09;34.37;101221.34;5098386;27;45361;-44
2023/04/10 04:35:33;;;;;;;;;4.00;4.00;;;;;20.09;34.21;101231.88;5098575;27;45563;-43
2023/04/10 04:37:58;;;;;;;;;4.00;4.00;;;;;20.08;34.31;101220.53;5098600;27;45435;-43
2023/04/10 04:40:23;;;;;;;;;3.67;3.00;;;;;20.10;34.74;101223.06;5097423;27;68048;-42
2023/04/10 04:42:49;;;;;;;;;5.00;4.00;;;;;20.08;34.51;101228.41;5098131;27;45360;-45
2023/04/10 04:45:14;;;;;;;;;4.00;2.75;;;;;20.08;34.76;101220.53;5098649;27;45317;-43
2023/04/10 04:47:39;;;;;;;;;4.25;4.00;;;;;20.10;34.68;101227.50;5098507;27;45227;-42
2023/04/10 04:50:05;;;;;;;;;6.00;4.00;;;;;20.08;34.48;101217.91;5097288;27;64866;-42
2023/04/10 04:52:31;;;;;;;;;5.25;5.25;;;;;20.10;34.89;101232.75;5097939;27;45266;-43
2023/04/10 04:54:56;;;;;;;;;4.00;4.00;;;;;20.10;34.44;101227.50;5098258;27;45730;-42
2023/04/10 04:57:21;;;;;;;;;3.00;3.00;;;;;20.08;34.91;101233.69;5098329;27;45451;-42
2023/04/10 04:59:46;;;;;;;;;3.67;3.67;;;;;20.08;34.50;101230.19;5097936;27;52907;-43
2023/04/10 05:02:12;;;;;;;;;5.33;4.33;;;;;20.10;34.59;101238.03;5095517;27;56090;-44
2023/04/10 05:04:37;;;;;;;;;4.75;4.75;;;;;20.06;34.98;101238.16;5097975;27;45459;-43
2023/04/10 05:07:02;;;;;;;;;3.33;3.33;;;;;20.08;34.67;101232.81;5097146;27;59581;-42
2023/04/10 05:09:28;;;;;;;;;4.00;3.33;;;;;20.08;34.52;101235.44;5096939;27;66599;-43
2023/04/10 05:11:53;;;;;;;;;3.00;3.00;;;;;20.08;34.79;101235.44;5096538;27;45401;-42
2023/04/10 05:14:20;;;;;;;;;4.00;3.50;;;;;20.08;34.45;101236.31;5096951;27;45395;-42
2023/04/10 05:16:45;;;;;;;;;4.75;4.00;;;;;20.08;34.75;101231.03;5098187;27;45359;-42
2023/04/10 05:19:10;;;;;;;;;0.75;0.00;;;;;20.08;34.75;101235.44;5097224;27;56140;-42
2023/04/10 05:21:36;;;;;;;;;4.00;3.00;;;;;20.08;34.60;101236.31;5097311;27;52819;-43
2023/04/10 05:24:02;;;;;;;;;5.00;4.50;;;;;20.09;35.01;101231.88;5097759;27;45314;-44
2023/04/10 05:26:27;;;;;;;;;4.25;4.25;;;;;20.10;34.76;101230.13;5097859;27;45175;-43
2023/04/10 05:28:53;;;;;;;;;4.50;3.50;;;;;20.09;34.58;101237.16;5097508;27;46162;-50
2023/04/10 05:31:18;;;;;;;;;3.25;3.25;;;;;20.09;34.70;101237.16;5097835;27;45207;-43
2023/04/10 05:33:43;;;;;;;;;5.00;3.25;;;;;20.08;34.55;101244.22;5097266;27;49548;-43
2023/04/10 05:36:09;;;;;;;;;4.33;4.33;;;;;20.07;34.64;101239.00;5096969;27;58036;-43
2023/04/10 05:38:35;;;;;;;;;3.00;3.00;;;;;20.08;34.65;101251.22;5097280;27;45527;-43
2023/04/10 05:41:00;;;;;;;;;4.75;4.00;;;;;20.08;34.80;101257.38;5097328;27;45288;-44
2023/04/10 05:43:25;;;;;;;;;3.75;3.75;;;;;20.10;35.03;101266.97;5097400;27;45247;-43
2023/04/10 05:45:51;;;;;;;;;5.00;5.00;;;;;20.07;34.70;101250.38;5096455;27;45458;-42
2023/04/10 05:48:16;;;;;;;;;3.00;3.00;;;;;20.08;34.55;101238.94;5096705;27;63188;-43
2023/04/10 05:50:41;;;;;;;;;4.00;4.00;;;;;20.08;35.04;101238.94;5097373;27;45464;-42
2023/04/10 05:53:11;;;;;;;;;4.25;4.25;;;;;20.08;34.82;101232.81;5097277;27;45409;-43
2023/04/10 05:55:37;;;;;;;;;3.25;3.25;;;;;20.07;34.79;101236.38;5097564;27;45325;-43
2023/04/10 05:58:02;;;;;;;;;4.25;3.25;;;;;20.08;34.83;101241.56;5097064;27;45802;-42
2023/04/10 06:00:27;;;;;;;;;3.50;3.50;;;;;20.08;34.84;101246.84;5096848;27;48911;-42
2023/04/10 06:02:53;;;;;;;;;5.25;4.00;;;;;20.08;34.93;101238.06;5097201;27;45238;-42
2023/04/10 06:05:18;;;;;;;;;4.00;4.00;;;;;20.08;34.98;101241.56;5097562;27;45528;-43
2023/04/10 06:07:43;;;;;;;;;4.25;3.00;;;;;20.06;35.04;101230.25;5096784;27;46232;-44
2023/04/10 06:10:09;;;;;;;;;5.00;5.00;;;;;20.07;34.73;101234.59;5096396;27;57894;-43
2023/04/10 06:12:35;;;;;;;;;4.25;4.25;;;;;20.06;34.79;101237.31;5097125;27;45223;-43
2023/04/10 06:15:01;;;;;;;;;3.25;2.25;;;;;20.07;34.56;101245.13;5100888;27;45594;-44
2023/04/10 06:17:27;;;;;;;;;4.75;4.75;;;;;20.07;34.89;101239.88;5100486;27;46503;-43
2023/04/10 06:19:52;;;;;;;;;4.00;4.00;;;;;20.09;34.71;101247.69;5100902;27;45367;-43
2023/04/10 06:22:17;;;;;;;;;5.00;4.75;;;;;20.08;34.85;101241.56;5100584;27;45299;-42
2023/04/10 06:24:43;;;;;;;;;4.67;4.00;;;;;20.06;34.47;101259.22;5100089;27;51930;-43
2023/04/10 06:27:08;;;;;;;;;7.00;5.00;;;;;20.07;34.40;101260.91;5098134;27;67215;-43
2023/04/10 06:29:33;;;;;;;;;4.00;4.00;;;;;20.08;34.67;101262.63;5100260;27;45393;-42
2023/04/10 06:31:59;;;;;;;;;5.25;5.00;;;;;20.08;34.70;101256.50;5100548;27;45387;-42
2023/04/10 06:34:24;;;;;;;;;5.50;5.25;;;;;20.07;35.15;101258.28;5100957;27;46023;-43
2023/04/10 06:36:50;;;;;;;;;3.75;3.75;;;;;20.08;35.18;101257.38;5100444;27;45448;-42
2023/04/10 06:39:16;;;;;;;;;8.00;5.75;;;;;20.08;35.30;101257.38;5100243;27;45885;-43
2023/04/10 06:41:41;;;;;;;;;3.25;3.25;;;;;20.07;34.79;101260.03;5100309;27;45351;-42
2023/04/10 06:44:07;;;;;;;;;6.00;5.00;;;;;20.07;34.73;101260.03;5100449;27;45337;-43
2023/04/10 06:46:32;;;;;;;;;5.25;5.25;;;;;20.07;35.00;101263.53;5100000;27;46166;-45
2023/04/10 06:48:58;;;;;;;;;4.50;4.50;;;;;20.08;34.95;101251.22;5100074;27;45299;-44
2023/04/10 06:51:23;;;;;;;;;5.75;5.00;;;;;20.08;34.99;101246.84;5099993;27;50028;-43
2023/04/10 06:53:48;;;;;;;;;4.25;4.25;;;;;20.07;34.66;101237.22;5100332;27;45226;-43
2023/04/10 06:56:14;;;;;;;;;6.00;4.00;;;;;20.07;34.56;101234.59;5099830;27;46053;-43
2023/04/10 06:58:40;;;;;;;;;4.00;4.00;;;;;20.07;34.91;101231.97;5100012;27;45345;-43
2023/04/10 07:01:05;;;;;;;;;5.00;5.00;;;;;20.08;35.17;101223.16;5100043;27;45309;-44
2023/04/10 07:03:31;;;;;;;;;6.50;5.00;;;;;20.08;34.80;101238.94;5100104;27;45505;-44
2023/04/10 07:05:57;;;;;;;;;4.00;4.00;;;;;20.09;34.79;101234.53;5099772;27;46339;-44
2023/04/10 07:08:22;;;;;;;;;6.00;4.25;;;;;20.04;34.84;101224.22;5099965;27;45349;-43
2023/04/10 07:10:48;;;;;;;;;6.00;4.50;;;;;20.09;34.82;101221.34;5100043;27;45302;-44
2023/04/10 07:13:13;;;;;;;;;4.00;4.00;;;;;20.08;35.15;101220.53;5099262;27;57714;-47
2023/04/10 07:15:38;;;;;;;;;6.00;4.25;;;;;20.11;34.57;101222.16;5098366;27;45389;-44
2023/04/10 07:18:04;;;;;;;;;4.00;4.00;;;;;20.08;34.71;101220.53;5099522;27;45604;-44
2023/04/10 07:20:31;;;;;;;;;5.00;4.50;;;;;20.10;35.02;101212.53;5099581;27;45404;-43
2023/04/10 07:22:56;;;;;;;;;4.00;4.00;;;;;20.10;34.52;101211.72;5100217;27;45326;-44
2023/04/10 07:25:22;;;;;;;;;4.75;4.00;;;;;20.11;34.88;101213.41;5098682;27;45582;-45
2023/04/10 07:27:47;;;;;;;;;7.00;4.25;;;;;20.10;34.69;101212.53;5099494;27;45227;-44
2023/04/10 07:30:12;;;;;;;;;4.00;4.00;;;;;20.10;34.77;101196.75;5099725;27;45347;-46
2023/04/10 07:32:39;;;;;;;;;3.00;3.00;;;;;20.10;35.13;101188.03;5099855;27;45247;-43
2023/04/10 07:35:05;;;;;;;;;4.50;4.25;;;;;20.12;35.03;101188.81;5099269;27;47084;-44
2023/04/10 07:37:31;;;;;;;;;8.50;4.25;;;;;20.12;34.90;101189.66;5099329;27;45479;-43
2023/04/10 07:39:56;;;;;;;;;5.67;5.00;;;;;20.13;35.06;101195.75;5098656;27;53852;-44
2023/04/10 07:42:22;;;;;;;;;4.00;4.00;;;;;20.13;35.00;101193.13;5099683;27;45234;-43
2023/04/10 07:44:47;;;;;;;;;4.00;4.00;;;;;20.15;34.59;101183.38;5099033;27;47111;-43
2023/04/10 07:47:13;;;;;;;;;3.75;3.75;;;;;20.16;34.69;101190.34;5099040;27;45382;-43
2023/04/10 07:49:38;;;;;;;;;5.50;5.00;;;;;20.16;35.20;101195.59;5099167;27;45278;-43
2023/04/10 07:52:03;;;;;;;;;5.50;5.50;;;;;20.17;35.04;101197.31;5099341;27;45460;-44
2023/04/10 07:54:34;;;;;;;;;5.50;3.00;;;;;20.15;35.01;101192.13;5099276;27;46431;-45
2023/04/10 07:57:00;;;;;;;;;6.00;3.75;;;;;20.17;34.73;101192.06;5099049;27;45259;-44
2023/04/10 07:59:26;;;;;;;;;6.00;4.75;;;;;20.16;35.06;101190.34;5099408;27;45326;-44
2023/04/10 08:01:51;;;;;;;;;7.50;6.00;;;;;20.17;35.14;101181.53;5099274;27;45310;-45
2023/04/10 08:04:16;;;;;;;;;5.25;5.00;;;;;20.17;35.31;101176.25;5098823;27;45626;-45
2023/04/10 08:06:42;;;;;;;;;5.00;5.00;;;;;20.19;34.85;101195.47;5098142;27;61408;-45
2023/04/10 08:09:07;;;;;;;;;4.00;4.00;;;;;20.21;35.17;101183.09;5099124;27;45387;-45
2023/04/10 08:11:34;;;;;;;;;3.00;3.00;;;;;20.19;35.12;101188.41;5092022;27;45363;-44
2023/04/10 08:14:00;;;;;;;;;5.50;5.00;;;;;20.20;35.12;101199.81;5092052;27;46215;-43
2023/04/10 08:16:30;;;;;;;;;5.00;4.00;;;;;20.20;34.78;101207.72;5098641;27;45898;-43
2023/04/10 08:18:56;;;;;;;;;5.00;3.75;;;;;20.20;34.99;101210.34;5098954;27;45339;-43
2023/04/10 08:21:23;;;;;;;;;5.00;5.00;;;;;20.21;34.47;101205.00;5098645;27;45511;-43
2023/04/10 08:23:53;;;;;;;;;4.50;4.50;;;;;20.21;34.66;101210.25;5098316;27;46558;-44
2023/04/10 08:26:19;;;;;;;;;4.00;4.00;;;;;20.21;35.01;101198.88;5098168;27;45835;-44
2023/04/10 08:28:48;;;;;;;;;6.75;6.75;;;;;20.20;35.05;101205.06;5098343;27;45392;-44
2023/04/10 08:31:14;;;;;;;;;4.75;4.75;;;;;20.20;34.97;101199.81;5096964;27;45547;-45
2023/04/10 08:33:40;;;;;;;;;6.50;5.50;;;;;20.20;34.68;101198.03;5098188;27;45444;-44
2023/04/10 10:12:56;;;;;;;;;5.25;3.00;;;;;20.18;35.17;101141.13;5096489;27;45415;-44
2023/04/10 10:15:35;;;;;;;;;4.00;4.00;;;;;20.20;35.37;101140.13;5098425;27;45305;-44
2023/04/10 10:18:16;;;;;;;;;4.00;3.00;;;;;20.25;35.23;101132.00;5097573;27;46316;-43
2023/04/10 10:20:44;;;;;;;;;4.25;4.25;;;;;20.29;35.01;101130.94;5098713;27;45823;-43
2023/04/10 10:23:09;;;;;;;;;4.25;4.25;;;;;20.33;35.51;101123.72;5096196;27;45455;-43
2023/04/10 10:25:36;;;;;;;;;4.00;3.50;;;;;20.41;35.51;101121.53;5097020;27;45424;-43
2023/04/10 10:28:03;;;;;;;;;3.50;3.50;;;;;20.49;35.03;101119.41;5096827;27;46277;-43
2023/04/10 10:30:33;;;;;;;;;5.75;5.00;;;;;20.55;35.30;101123.50;5095520;27;45403;-43
2023/04/10 10:33:00;;;;;;;;;4.75;4.75;;;;;20.64;35.04;101116.91;5096951;27;45274;-43
2023/04/10 10:35:26;;;;;;;;;4.00;4.00;;;;;20.70;35.49;101117.44;5096993;27;45443;-43
2023/04/10 10:37:53;;;;;;;;;6.25;5.00;;;;;20.79;34.86;101123.19;5096690;27;46052;-43
2023/04/10 10:40:59;;;;;;;;;3.00;3.00;;;;;20.85;35.21;101110.53;5096977;27;46048;-43
2023/04/10 10:43:46;;;;;;;;;3.50;3.50;;;;;20.93;34.82;101099.59;5079672;27;45433;-43
2023/04/10 10:46:23;;;;;;;;;3.50;3.50;;;;;21.01;35.34;101101.84;5116989;27;45412;-43
2023/04/10 10:48:56;;;;;;;;;6.00;4.00;;;;;21.08;35.18;101105.00;5111677;27;45250;-43
2023/04/10 10:51:21;;;;;;;;;4.00;4.00;;;;;21.12;34.91;101103.88;5102374;27;45728;-43
2023/04/10 10:53:46;;;;;;;;;4.00;3.25;;;;;21.19;34.95;101100.00;5114088;27;45269;-43
2023/04/10 10:56:18;;;;;;;;;4.00;4.00;;;;;21.26;34.98;101103.16;5116439;27;45315;-44
2023/04/10 10:58:48;;;;;;;;;6.00;4.25;;;;;21.31;34.68;101095.84;5099185;27;45472;-43
2023/04/10 11:01:14;;;;;;;;;3.00;3.00;;;;;21.37;34.68;101086.75;5093407;27;45258;-44
2023/04/10 11:03:40;;;;;;;;;4.50;4.50;;;;;21.41;34.63;101086.50;5079778;27;45347;-44
2023/04/10 11:06:07;;;;;;;;;4.00;4.00;;;;;21.45;34.79;101081.91;5080292;27;45358;-43
2023/04/10 11:08:35;;;;;;;;;3.00;3.00;;;;;21.48;34.63;101087.00;5081589;27;46192;-44
2023/04/10 11:11:04;;;;;;;;;4.50;4.50;;;;;21.51;34.87;101085.97;5081642;27;45980;-43
2023/04/10 11:13:30;;;;;;;;;5.50;4.00;;;;;21.53;34.87;101084.97;5079602;27;45457;-44
2023/04/10 11:15:56;;;;;;;;;4.25;4.00;;;;;21.55;34.59;101083.09;5078221;28;45358;-43
2023/04/10 11:18:59;;;;;;;;;4.00;3.00;;;;;21.59;34.66;101089.94;5080175;27;46029;-44
2023/04/10 11:21:25;;;;;;;;;5.00;3.75;;;;;21.60;34.43;101078.44;5079716;28;45904;-44
2023/04/10 11:23:51;;;;;;;;;4.25;4.25;;;;;21.61;34.65;101072.25;5093627;27;45338;-43
2023/04/10 11:29:04;;;;;;;;;4.25;4.00;;;;;21.64;34.65;101054.53;5081390;28;45361;-44
2023/04/10 11:31:31;;;;;;;;;4.00;4.00;;;;;21.58;34.82;101046.00;5079359;27;45320;-44
2023/04/10 11:33:59;;;;;;;;;4.25;4.00;;;;;21.64;34.54;101049.28;5079300;27;45389;-44
2023/04/10 11:36:26;;;;;;;;;2.00;2.00;;;;;21.63;34.58;101051.03;5079411;28;45412;-44
2023/04/10 11:38:58;;;;;;;;;3.00;3.00;;;;;21.64;34.42;101046.63;5079385;27;47077;-43
2023/04/10 11:41:37;;;;;;;;;2.50;2.50;;;;;21.62;34.17;101037.00;5083899;27;45330;-44
2023/04/10 11:44:15;;;;;;;;;3.50;3.50;;;;;21.61;34.39;101026.53;5098944;27;45325;-43
2023/04/10 11:46:43;;;;;;;;;2.25;2.25;;;;;21.55;34.46;101006.59;5089529;27;44836;-44
2023/04/10 11:49:10;;;;;;;;;4.00;4.00;;;;;21.60;34.31;101009.88;5081964;27;46291;-43
2023/04/10 11:51:36;;;;;;;;;8.00;4.00;;;;;21.60;34.46;101015.16;5100242;27;45193;-44
2023/04/10 11:54:05;;;;;;;;;3.75;3.75;;;;;21.59;34.37;101007.34;5097518;27;45487;-45
2023/04/10 11:56:31;;;;;;;;;2.50;2.00;;;;;21.59;33.85;101008.16;5089299;28;45558;-43
2023/04/10 11:58:56;;;;;;;;;2.25;2.25;;;;;21.58;34.18;101008.22;5087236;28;45188;-44
2023/04/10 12:01:22;;;;;;;;;2.00;2.00;;;;;21.56;34.11;101010.94;5089998;27;45294;-44
2023/04/10 12:03:47;;;;;;;;;2.00;2.00;;;;;21.57;34.04;101007.38;5090594;27;45235;-44
2023/04/10 12:06:13;;;;;;;;;2.75;2.75;;;;;21.54;34.22;100997.00;5089758;28;45435;-44
2023/04/10 12:08:46;;;;;;;;;3.00;2.25;;;;;21.54;34.14;100998.78;5082795;27;46164;-44
2023/04/10 12:11:12;;;;;;;;;3.00;3.00;;;;;21.52;34.04;101004.16;5084122;27;45373;-43
2023/04/10 12:13:37;;;;;;;;;2.75;1.50;;;;;21.51;33.97;101005.09;5080451;28;45321;-43
2023/04/10 12:16:06;;;;;;;;;2.00;2.00;;;;;21.50;33.88;101008.66;5079963;27;45344;-46
2023/04/10 12:18:32;;;;;;;;;2.00;2.00;;;;;21.49;34.30;101009.59;5096664;27;47279;-44
2023/04/10 12:20:58;;;;;;;;;4.50;4.00;;;;;21.51;34.21;101013.00;5104865;27;45489;-45
2023/04/10 12:23:25;;;;;;;;;2.00;2.00;;;;;21.50;34.42;101011.31;5104427;27;45475;-45
2023/04/10 12:25:52;;;;;;;;;4.75;3.25;;;;;21.51;34.28;101010.38;5103267;27;45496;-45
2023/04/10 12:28:19;;;;;;;;;3.00;2.00;;;;;21.52;34.29;101013.84;5101565;27;47012;-44
2023/04/10 12:30:49;;;;;;;;;3.00;3.00;;;;;21.52;34.43;101009.44;5099868;27;45341;-44
2023/04/10 12:33:20;;;;;;;;;2.00;2.00;;;;;21.52;34.43;101014.72;5099775;27;45343;-45
2023/04/10 12:35:45;;;;;;;;;0.00;0.00;;;;;21.51;34.53;101004.22;5101177;27;45494;-45
2023/04/10 12:38:11;;;;;;;;;3.00;3.00;;;;;21.52;34.54;101006.78;5104688;27;47141;-45
2023/04/10 12:40:37;;;;;;;;;2.00;2.00;;;;;21.53;34.32;101011.13;5103539;27;45409;-44
2023/04/10 12:43:03;;;;;;;;;3.00;3.00;;;;;21.53;34.21;101005.00;5109498;27;45317;-44
2023/04/10 12:45:42;;;;;;;;;4.00;2.00;;;;;21.51;34.43;101007.72;5118890;27;45386;-44
2023/04/10 12:48:07;;;;;;;;;3.00;3.00;;;;;21.51;34.50;101005.09;5127463;27;46166;-47
2023/04/10 12:50:33;;;;;;;;;4.00;3.00;;;;;21.52;34.20;101004.16;5104503;27;45329;-45
2023/04/10 12:53:03;;;;;;;;;3.00;3.00;;;;;21.51;34.73;100991.03;5099177;27;45221;-45
2023/04/10 12:55:30;;;;;;;;;2.00;2.00;;;;;21.48;34.43;100992.06;5099256;27;45388;-45
2023/04/10 12:57:55;;;;;;;;;3.00;2.00;;;;;21.50;34.40;100987.56;5098450;27;47093;-45
2023/04/10 13:00:21;;;;;;;;;3.00;3.00;;;;;21.49;34.47;100979.75;5098232;27;45420;-45
2023/04/10 13:02:47;;;;;;;;;3.00;2.00;;;;;21.50;34.27;100973.53;5096878;27;45369;-46
2023/04/10 13:05:13;;;;;;;;;2.25;2.25;;;;;21.51;34.48;100975.22;5098261;27;45463;-46